Time;durP1;ratioP1;P1;durP2;ratioP2;P2;SDS_P1;SDS_P2;PMS_P1;PMS_P2;Temp;Humidity;BMP_temperature;BMP_pressure;BME280_temperature;BME280_humidity;BME280_pressure;Samples;Min_cycle;Max_cycle;Signal;HPM_P1;HPM_P2
2024/04/08 00:01:35;;;;;;;0.10;0.10;;;;;;;25.08;33.19;100429.47;5016980;28;99246;-46
2024/04/08 00:04:03;;;;;;;0.17;0.10;;;;;;;25.07;33.17;100428.66;5017528;28;98631;-46
2024/04/08 00:06:29;;;;;;;0.10;0.08;;;;;;;25.07;33.14;100433.25;5017571;28;95808;-46
2024/04/08 00:08:56;;;;;;;0.10;0.10;;;;;;;25.06;33.21;100429.72;5018032;28;95869;-46
2024/04/08 00:11:35;;;;;;;0.25;0.10;;;;;;;25.07;33.15;100428.66;5017304;28;99206;-46
2024/04/08 00:14:02;;;;;;;0.08;0.05;;;;;;;25.06;33.23;100429.72;5018000;28;98695;-46
2024/04/08 00:16:31;;;;;;;0.75;0.10;;;;;;;25.07;33.20;100427.81;5017945;28;95837;-46
2024/04/08 00:18:58;;;;;;;0.10;0.10;;;;;;;25.07;33.19;100435.94;5017401;28;95913;-47
2024/04/08 00:21:24;;;;;;;0.25;0.17;;;;;;;25.06;33.27;100435.13;5017239;28;99128;-47
2024/04/08 00:23:52;;;;;;;0.10;0.10;;;;;;;25.06;33.18;100437.84;5017157;28;99966;-47
2024/04/08 00:26:18;;;;;;;0.20;0.10;;;;;;;25.05;33.10;100430.75;5017205;28;96160;-47
2024/04/08 00:28:45;;;;;;;0.20;0.10;;;;;;;25.05;33.17;100438.88;5016781;28;95930;-46
2024/04/08 00:31:11;;;;;;;0.13;0.10;;;;;;;25.05;33.14;100441.59;5017219;28;98846;-45
2024/04/08 00:33:40;;;;;;;0.13;0.10;;;;;;;25.04;33.18;100434.53;5017010;28;98930;-46
2024/04/08 00:36:07;;;;;;;0.10;0.10;;;;;;;25.04;33.13;100439.94;5017616;28;95939;-46
2024/04/08 00:38:34;;;;;;;0.10;0.10;;;;;;;25.04;33.09;100447.25;5018024;28;96031;-46
2024/04/08 00:48:22;;;;;;;0.10;0.10;;;;;;;25.00;33.08;100444.13;5016177;28;95854;-46
2024/04/08 00:50:50;;;;;;;0.93;0.20;;;;;;;24.99;nan;100442.50;5016638;28;96494;-46
2024/04/08 00:53:17;;;;;;;0.20;0.10;;;;;;;24.99;33.20;100439.78;5016442;28;98808;-46
2024/04/08 00:55:44;;;;;;;0.20;0.10;;;;;;;24.98;33.15;100438.97;5016530;28;98808;-46
2024/04/08 00:58:11;;;;;;;0.50;0.20;;;;;;;24.98;33.15;100441.69;5017001;28;95813;-46
2024/04/08 01:00:38;;;;;;;0.10;0.10;;;;;;;24.97;33.19;100441.88;5017639;28;96037;-46
2024/04/08 01:03:05;;;;;;;0.13;0.10;;;;;;;24.97;33.30;100441.88;5016576;28;98762;-46
2024/04/08 01:05:32;;;;;;;0.40;0.20;;;;;;;24.97;33.21;100436.47;5017550;28;98593;-47
2024/04/08 01:08:00;;;;;;;0.25;0.15;;;;;;;24.97;33.21;100431.06;5006326;28;95939;-46
2024/04/08 01:10:45;;;;;;;0.20;0.20;;;;;;;24.97;33.26;100436.47;4997274;28;95806;-47
2024/04/08 01:13:12;;;;;;;;;;;;;;;24.95;33.28;100436.72;4996627;28;99322;-47
2024/04/08 01:15:38;;;;;;;0.00;0.00;;;;;;;24.96;33.11;100442.97;4997219;28;98801;-47
2024/04/08 01:18:06;;;;;;;0.10;0.10;;;;;;;24.96;33.31;100437.53;4997332;28;95811;-47
2024/04/08 01:20:32;;;;;;;0.10;0.10;;;;;;;24.96;33.25;100445.66;4996456;28;95864;-46
2024/04/08 01:23:01;;;;;;;0.40;0.20;;;;;;;24.95;33.15;100439.44;4996537;28;98872;-46
2024/04/08 01:29:21;;;;;;;0.15;0.10;;;;;;;24.96;33.07;100437.53;4997179;28;96276;-46
2024/04/08 01:31:48;;;;;;;0.17;0.13;;;;;;;24.94;33.21;100435.03;4996957;28;95819;-46
2024/04/08 01:34:15;;;;;;;0.30;0.10;;;;;;;24.94;33.03;100439.66;4996444;28;98825;-46
2024/04/08 01:36:41;;;;;;;0.13;0.10;;;;;;;24.94;33.04;100439.66;4996417;28;98683;-46
2024/04/08 01:39:09;;;;;;;0.40;0.15;;;;;;;24.93;33.10;100443.41;5002084;28;95990;-46
2024/04/08 01:41:36;;;;;;;0.20;0.10;;;;;;;24.93;33.10;100432.59;5015728;28;96005;-46
2024/04/08 01:44:03;;;;;;;0.20;0.10;;;;;;;24.92;33.04;100431.72;5016117;28;98829;-46
2024/04/08 01:46:31;;;;;;;0.32;0.17;;;;;;;24.91;33.12;100430.09;5015833;28;98960;-46
2024/04/08 01:48:58;;;;;;;0.20;0.20;;;;;;;24.91;33.25;100430.09;5016516;28;95864;-46
2024/04/08 01:51:24;;;;;;;0.10;0.10;;;;;;;24.91;33.01;100434.69;5014677;28;95975;-46
2024/04/08 01:53:52;;;;;;;0.22;0.20;;;;;;;24.90;33.06;100427.59;5016045;28;98930;-46
2024/04/08 01:56:55;;;;;;;0.30;0.20;;;;;;;24.91;33.08;100423.84;5016592;28;98752;-46
2024/04/08 01:59:22;;;;;;;0.10;0.10;;;;;;;24.89;32.98;100426.78;5016221;28;95899;-46
2024/04/08 02:01:50;;;;;;;0.20;0.17;;;;;;;24.88;33.06;100422.44;5018406;28;95980;-46
2024/04/08 02:04:17;;;;;;;0.50;0.17;;;;;;;24.88;33.03;100422.44;5018904;28;99181;-46
2024/04/08 02:06:44;;;;;;;0.10;0.10;;;;;;;24.88;33.07;100427.00;5019176;28;99086;-46
2024/04/08 02:09:11;;;;;;;0.10;0.10;;;;;;;24.88;33.02;100427.84;5019540;28;95851;-46
2024/04/08 02:11:37;;;;;;;0.45;0.17;;;;;;;24.87;33.05;100422.63;5019185;28;95894;-46
2024/04/08 02:14:04;;;;;;;0.30;0.20;;;;;;;24.87;33.19;100428.06;5018870;28;98832;-46
2024/04/08 02:16:31;;;;;;;0.10;0.10;;;;;;;24.87;33.14;100433.47;5019216;28;98916;-46
2024/04/08 02:19:00;;;;;;;0.30;0.20;;;;;;;24.86;33.17;100426.41;5019203;28;95982;-46
2024/04/08 02:21:26;;;;;;;0.32;0.20;;;;;;;24.87;33.09;100426.16;5019382;28;95875;-46
2024/04/08 02:23:54;;;;;;;0.47;0.20;;;;;;;24.87;33.13;100417.22;5018899;28;99108;-46
2024/04/08 02:26:20;;;;;;;0.10;0.10;;;;;;;24.87;33.08;100422.63;5019203;28;98986;-46
2024/04/08 02:30:05;;;;;;;0.30;0.10;;;;;;;24.86;33.13;100426.41;5556460;25;93780;-47
2024/04/08 02:32:33;;;;;;;0.20;0.15;;;;;;;24.86;32.98;100427.22;5555358;25;94118;-46
2024/04/08 02:35:03;;;;;;;0.10;0.10;;;;;;;24.86;33.19;100438.06;5555136;25;95967;-45
2024/04/08 02:37:30;;;;;;;0.10;0.10;;;;;;;24.86;33.02;100434.53;5555060;25;95908;-46
2024/04/08 02:40:04;;;;;;;0.10;0.10;;;;;;;24.85;33.01;100431.00;5555625;25;94023;-46
2024/04/08 02:42:59;;;;;;;0.30;0.15;;;;;;;24.84;32.82;100428.50;5559332;25;93782;-46
2024/04/08 02:45:32;;;;;;;0.10;0.10;;;;;;;24.84;33.14;100432.03;5554865;25;95899;-46
2024/04/08 02:47:59;;;;;;;0.40;0.10;;;;;;;24.83;32.82;100433.09;5554298;25;95971;-46
2024/04/08 02:50:30;;;;;;;0.00;0.00;;;;;;;24.83;32.96;100432.28;5555155;25;93833;-46
2024/04/08 02:52:57;;;;;;;0.13;0.13;;;;;;;24.83;32.88;100432.28;5555413;25;94556;-46
2024/04/08 02:56:08;;;;;;;0.43;0.10;;;;;;;24.84;33.06;100433.94;5554450;25;96042;-46
2024/04/08 02:58:35;;;;;;;0.10;0.10;;;;;;;24.81;33.18;100437.09;5554694;25;95887;-47
2024/04/08 03:01:09;;;;;;;0.20;0.10;;;;;;;24.80;32.94;100438.97;5555378;25;93854;-47
2024/04/08 03:03:36;;;;;;;0.20;0.10;;;;;;;24.79;33.10;100437.31;5555042;25;93965;-46
2024/04/08 03:06:11;;;;;;;0.20;0.10;;;;;;;24.79;32.82;100434.59;5554712;25;96244;-46
2024/04/08 03:08:38;;;;;;;;;;;;;;;24.78;32.94;100439.19;5555411;25;95901;-46
2024/04/08 03:11:48;;;;;;;0.10;0.10;;;;;;;24.78;33.06;100441.06;5554879;25;93854;-46
2024/04/08 03:14:16;;;;;;;0.20;0.17;;;;;;;24.77;33.15;100440.25;5554727;25;93896;-46
2024/04/08 03:16:49;;;;;;;0.13;0.10;;;;;;;24.77;33.08;100436.72;5554036;25;95867;-46
2024/04/08 03:19:16;;;;;;;0.30;0.20;;;;;;;24.76;32.97;100438.56;5554547;25;95921;-46
2024/04/08 03:21:46;;;;;;;0.10;0.10;;;;;;;24.76;32.92;100438.56;5554689;25;93785;-46
2024/04/08 03:24:13;;;;;;;0.40;0.25;;;;;;;24.75;32.87;100431.53;5555286;25;93950;-46
2024/04/08 03:30:35;;;;;;;0.20;0.10;;;;;;;24.74;33.03;100424.47;5554352;25;93963;-45
2024/04/08 03:33:05;;;;;;;0.10;0.10;;;;;;;24.75;32.88;100439.66;5554687;25;93759;-46
2024/04/08 03:35:35;;;;;;;0.08;0.05;;;;;;;24.75;32.79;100436.94;5554763;25;93982;-46
2024/04/08 03:38:06;;;;;;;0.17;0.10;;;;;;;24.74;32.93;100439.84;5554637;25;96002;-46
2024/04/08 03:44:17;;;;;;;0.43;0.10;;;;;;;24.73;32.93;100430.09;5541214;25;93869;-46
2024/04/08 03:46:47;;;;;;;0.52;0.15;;;;;;;24.73;32.83;100432.78;5538128;25;93787;-47
2024/04/08 03:49:17;;;;;;;0.15;0.15;;;;;;;24.73;33.01;100436.31;5537393;25;95866;-46
2024/04/08 03:51:47;;;;;;;0.17;0.10;;;;;;;24.72;32.75;100442.81;5537423;25;95957;-46
2024/04/08 03:54:17;;;;;;;0.10;0.10;;;;;;;24.72;32.85;100441.97;5538820;25;93862;-46
2024/04/08 03:56:45;;;;;;;0.15;0.15;;;;;;;24.72;32.81;100452.81;5537985;25;94069;-47
2024/04/08 03:59:15;;;;;;;0.10;0.10;;;;;;;24.71;32.67;100451.97;5536762;25;94657;-47
2024/04/08 04:01:43;;;;;;;0.10;0.10;;;;;;;24.72;32.81;100459.03;5537088;25;95968;-47
2024/04/08 04:04:13;;;;;;;0.10;0.10;;;;;;;24.70;32.83;100455.72;5538210;25;93815;-47
2024/04/08 04:06:43;;;;;;;0.35;0.20;;;;;;;24.70;32.69;100458.44;5537596;25;93970;-47
2024/04/08 04:09:13;;;;;;;0.20;0.17;;;;;;;24.70;33.02;100458.44;5536730;25;96198;-46
2024/04/08 04:12:17;;;;;;;0.25;0.20;;;;;;;24.70;33.00;100463.03;5537568;25;95932;-47
2024/04/08 04:14:48;;;;;;;0.23;0.20;;;;;;;24.67;32.80;100464.31;5538163;25;94079;-47
2024/04/08 04:17:15;;;;;;;0.00;0.00;;;;;;;24.67;32.73;100472.44;5538011;25;93937;-47
2024/04/08 04:19:46;;;;;;;0.00;0.00;;;;;;;24.67;32.96;100467.00;5537637;25;96326;-47
2024/04/08 04:22:16;;;;;;;0.20;0.03;;;;;;;24.67;32.98;100464.31;5537628;25;95859;-46
2024/04/08 04:24:46;;;;;;;0.55;0.10;;;;;;;24.67;32.72;100471.59;5537787;25;93810;-47
2024/04/08 04:27:14;;;;;;;0.10;0.10;;;;;;;24.67;32.87;100471.59;5537460;25;93962;-47
2024/04/08 04:29:44;;;;;;;0.20;0.10;;;;;;;24.70;32.76;100471.16;5536622;25;95916;-47
2024/04/08 04:32:11;;;;;;;0.13;0.10;;;;;;;24.70;32.74;100471.16;5536688;25;95887;-47
2024/04/08 04:34:42;;;;;;;0.32;0.20;;;;;;;24.73;32.61;100470.69;5538231;25;94477;-46
2024/04/08 04:37:10;;;;;;;0.10;0.10;;;;;;;24.74;32.93;100478.59;5537852;25;94799;-46
2024/04/08 04:39:43;;;;;;;0.10;0.10;;;;;;;24.75;32.72;100480.25;5537572;25;95879;-46
2024/04/08 04:46:04;;;;;;;0.10;0.10;;;;;;;24.78;32.75;100482.50;5538361;25;93742;-47
2024/04/08 04:48:31;;;;;;;0.17;0.10;;;;;;;24.77;32.68;100488.97;5537079;25;93920;-46
2024/04/08 04:51:01;;;;;;;0.20;0.10;;;;;;;24.78;32.49;100496.03;5536494;25;96004;-47
2024/04/08 04:53:29;;;;;;;0.10;0.10;;;;;;;24.77;32.83;100494.41;5536643;25;96057;-47
2024/04/08 04:56:01;;;;;;;0.20;0.10;;;;;;;24.78;32.45;100490.63;5537826;25;93939;-47
2024/04/08 04:58:29;;;;;;;0.20;0.20;;;;;;;24.77;32.48;100491.69;5536986;25;93908;-47
2024/04/08 05:00:59;;;;;;;0.10;0.10;;;;;;;24.75;32.60;100488.38;5536375;25;95860;-47
2024/04/08 05:03:26;;;;;;;0.30;0.20;;;;;;;24.75;32.58;100491.06;5537072;25;95772;-46
2024/04/08 05:05:57;;;;;;;0.43;0.10;;;;;;;24.74;32.43;100494.84;5538715;25;95360;-46
2024/04/08 05:08:24;;;;;;;0.10;0.10;;;;;;;24.73;32.69;100495.06;5537129;25;94851;-46
2024/04/08 05:11:21;;;;;;;0.03;0.03;;;;;;;24.73;32.59;100498.59;5536367;25;95902;-46
2024/04/08 05:13:49;;;;;;;0.10;0.10;;;;;;;24.73;32.70;100498.59;5536940;25;95849;-47
2024/04/08 05:16:19;;;;;;;0.10;0.10;;;;;;;24.72;32.60;100494.25;5537380;25;94178;-46
2024/04/08 05:18:47;;;;;;;0.20;0.20;;;;;;;24.74;32.55;100499.41;5537155;25;93982;-47
2024/04/08 05:21:17;;;;;;;0.10;0.10;;;;;;;24.73;32.36;100493.19;5536955;25;95863;-46
2024/04/08 05:23:44;;;;;;;0.20;0.20;;;;;;;24.73;32.33;100487.75;5537586;25;95952;-46
2024/04/08 05:30:09;;;;;;;0.08;0.08;;;;;;;24.74;32.37;100505.69;5511385;25;95069;-46
2024/04/08 05:32:40;;;;;;;0.20;0.20;;;;;;;24.74;32.34;100505.69;5536610;25;95744;-47
2024/04/08 05:35:08;;;;;;;0.28;0.20;;;;;;;24.74;32.26;100500.25;5537083;25;95953;-47
2024/04/08 05:37:38;;;;;;;0.10;0.10;;;;;;;24.73;32.14;100504.00;5537591;25;93819;-47
2024/04/08 05:40:11;;;;;;;0.10;0.10;;;;;;;24.74;32.05;100500.25;5537824;25;93901;-46
2024/04/08 05:42:41;;;;;;;0.10;0.10;;;;;;;24.74;32.10;100504.81;5536935;25;95945;-46
2024/04/08 05:45:11;;;;;;;0.70;0.20;;;;;;;24.73;31.92;100511.31;5537079;25;96055;-47
2024/04/08 05:47:42;;;;;;;0.20;0.10;;;;;;;24.74;32.06;100507.53;5537772;25;93847;-47
2024/04/08 05:50:09;;;;;;;0.00;0.00;;;;;;;24.73;32.08;100505.88;5537385;25;93760;-46
2024/04/08 05:52:39;;;;;;;0.20;0.10;;;;;;;24.73;32.01;100509.41;5536549;25;95951;-45
2024/04/08 05:55:07;;;;;;;0.10;0.10;;;;;;;24.73;31.97;100500.47;5507074;25;96260;-46
2024/04/08 05:57:37;;;;;;;0.30;0.10;;;;;;;24.73;31.96;100506.72;5499653;25;93858;-46
2024/04/08 06:00:05;;;;;;;0.63;0.20;;;;;;;24.73;31.84;100509.41;5499629;25;93814;-46
2024/04/08 06:02:38;;;;;;;0.32;0.20;;;;;;;24.74;31.91;100502.97;5498214;25;95890;-46
2024/04/08 06:05:08;;;;;;;0.10;0.10;;;;;;;24.74;31.86;100511.09;5498847;25;95878;-46
2024/04/08 06:07:38;;;;;;;0.10;0.10;;;;;;;24.74;31.91;100505.69;5499784;25;93787;-47
2024/04/08 06:10:06;;;;;;;0.20;0.20;;;;;;;24.75;32.04;100511.91;5499496;25;93925;-46
2024/04/08 06:16:27;;;;;;;0.50;0.20;;;;;;;24.76;31.86;100492.72;5500921;25;94032;-45
2024/04/08 06:18:57;;;;;;;0.35;0.22;;;;;;;24.78;31.66;100495.22;5499698;25;93762;-46
2024/04/08 06:21:30;;;;;;;0.10;0.10;;;;;;;24.79;31.59;100496.88;5499577;25;94895;-46
2024/04/08 06:23:57;;;;;;;0.15;0.15;;;;;;;24.81;31.76;100496.66;5499211;25;95915;-47
2024/04/08 06:26:46;;;;;;;0.10;0.10;;;;;;;24.81;31.64;100497.47;5498754;25;95882;-46
2024/04/08 06:29:13;;;;;;;0.25;0.15;;;;;;;24.81;31.67;100500.19;5499253;25;93854;-47
2024/04/08 06:31:43;;;;;;;0.17;0.10;;;;;;;24.84;31.47;100501.63;5499037;25;93970;-47
2024/04/08 06:34:14;;;;;;;0.57;0.20;;;;;;;24.85;31.73;100495.13;5498414;25;95978;-46
2024/04/08 06:36:44;;;;;;;0.17;0.10;;;;;;;24.85;31.51;100496.00;5498845;25;95963;-47
2024/04/08 06:39:11;;;;;;;0.20;0.10;;;;;;;24.86;31.54;100497.63;5499562;25;93864;-47
2024/04/08 06:46:00;;;;;;;0.20;0.10;;;;;;;24.88;31.49;100494.72;5499812;25;94275;-47
2024/04/08 06:48:27;;;;;;;0.30;0.15;;;;;;;24.89;31.62;100496.34;5498603;25;95889;-47
2024/04/08 06:51:00;;;;;;;0.00;0.00;;;;;;;24.90;31.63;100498.00;5497786;25;93877;-46
2024/04/08 06:53:28;;;;;;;0.38;0.13;;;;;;;24.90;31.44;100484.47;5498799;25;93918;-47
2024/04/08 06:55:58;;;;;;;0.38;0.20;;;;;;;24.90;31.71;100487.16;5497520;25;95886;-46
2024/04/08 06:58:25;;;;;;;0.20;0.20;;;;;;;24.90;31.44;100490.72;5497195;25;95951;-46
2024/04/08 07:00:55;;;;;;;0.32;0.20;;;;;;;24.90;31.57;100487.16;5497494;25;93786;-46
2024/04/08 07:03:23;;;;;;;0.17;0.13;;;;;;;24.90;31.36;100488.03;5498148;25;94005;-46
2024/04/08 07:05:53;;;;;;;0.20;0.10;;;;;;;24.93;31.30;100497.56;5497179;25;95943;-46
2024/04/08 07:08:23;;;;;;;0.00;0.00;;;;;;;24.94;31.49;100483.78;5497526;25;96217;-46
2024/04/08 07:10:53;;;;;;;0.13;0.10;;;;;;;24.95;31.47;100487.31;5497537;25;93752;-46
2024/04/08 07:13:21;;;;;;;0.30;0.10;;;;;;;24.97;31.49;100487.94;5498111;25;94042;-46
2024/04/08 07:15:57;;;;;;;0.10;0.10;;;;;;;24.98;31.29;100489.56;5498584;25;96060;-46
2024/04/08 07:18:24;;;;;;;0.10;0.10;;;;;;;25.00;31.16;100492.91;5501008;25;95929;-46
2024/04/08 07:20:55;;;;;;;0.35;0.20;;;;;;;25.00;31.30;100492.91;5501380;25;93759;-47
2024/04/08 07:23:25;;;;;;;0.05;0.03;;;;;;;25.02;31.18;100490.78;5501105;25;93905;-47
2024/04/08 07:25:55;;;;;;;0.20;0.20;;;;;;;25.05;31.26;100486.81;5500089;25;95890;-47
2024/04/08 07:28:23;;;;;;;0.30;0.10;;;;;;;25.06;31.11;100492.00;5499700;25;96031;-46
2024/04/08 07:30:53;;;;;;;0.45;0.10;;;;;;;25.07;30.91;100485.53;5500345;25;93839;-47
2024/04/08 07:33:21;;;;;;;0.30;0.20;;;;;;;25.08;31.10;100484.47;5500841;25;93890;-46
2024/04/08 07:35:51;;;;;;;0.10;0.10;;;;;;;25.10;31.25;100487.78;5500439;25;95944;-46
2024/04/08 07:38:18;;;;;;;0.10;0.10;;;;;;;25.10;30.94;100487.78;5500149;25;95939;-47
2024/04/08 07:40:51;;;;;;;0.20;0.20;;;;;;;25.11;31.15;100480.47;5500581;25;93802;-47
2024/04/08 07:46:46;;;;;;;0.20;0.20;;;;;;;25.14;30.95;100490.84;5499790;25;95877;-47
2024/04/08 07:49:14;;;;;;;0.28;0.10;;;;;;;25.15;30.97;100485.25;5499889;25;95775;-47
2024/04/08 07:51:44;;;;;;;0.13;0.10;;;;;;;25.16;30.77;100491.50;5499647;25;93779;-46
2024/04/08 07:54:11;;;;;;;0.10;0.10;;;;;;;25.17;30.72;100494.00;5500600;25;93971;-46
2024/04/08 07:56:47;;;;;;;0.47;0.10;;;;;;;25.17;30.72;100491.28;5518406;25;95906;-46
2024/04/08 07:59:14;;;;;;;0.10;0.10;;;;;;;25.19;30.85;100491.88;5537252;25;95944;-46
2024/04/08 08:01:45;;;;;;;0.38;0.20;;;;;;;25.19;30.97;100488.31;5537941;25;93814;-46
2024/04/08 08:04:12;;;;;;;0.30;0.20;;;;;;;25.19;30.79;100491.88;5538173;25;94950;-46
2024/04/08 08:06:42;;;;;;;0.17;0.10;;;;;;;25.20;30.79;100498.94;5537318;25;95971;-47
2024/04/08 08:09:12;;;;;;;0.40;0.30;;;;;;;25.21;30.86;100489.75;5538323;25;95939;-46
2024/04/08 08:12:07;;;;;;;0.10;0.10;;;;;;;25.23;30.75;100498.50;5538142;25;93806;-47
2024/04/08 08:14:37;;;;;;;0.38;0.20;;;;;;;25.27;30.78;100489.91;5507673;25;93970;-47
2024/04/08 08:17:07;;;;;;;0.82;0.20;;;;;;;25.26;30.52;100480.94;5499572;25;95884;-47
2024/04/08 08:19:35;;;;;;;0.10;0.10;;;;;;;25.27;30.58;100484.47;5500711;25;95941;-47
2024/04/08 08:22:06;;;;;;;0.30;0.10;;;;;;;25.28;31.02;100480.72;5500480;25;93805;-47
2024/04/08 08:24:37;;;;;;;0.20;0.10;;;;;;;25.27;30.83;100484.47;5500337;25;93925;-47
2024/04/08 08:31:01;;;;;;;0.25;0.13;;;;;;;25.28;30.60;100483.44;5539448;25;94056;-46
2024/04/08 08:33:31;;;;;;;0.10;0.10;;;;;;;25.30;30.54;100471.31;5537274;25;93780;-46
2024/04/08 08:36:01;;;;;;;0.32;0.20;;;;;;;25.29;30.71;100469.66;5538021;25;93930;-46
2024/04/08 08:38:29;;;;;;;0.10;0.10;;;;;;;25.32;30.82;100476.50;5536899;25;95870;-46
2024/04/08 08:41:03;;;;;;;0.10;0.10;;;;;;;25.34;30.64;100461.66;5537194;25;95884;-46
2024/04/08 08:56:34;;;;;;;0.10;0.10;;;;;;;25.41;30.70;100450.75;5539288;25;93978;-47
2024/04/08 08:59:04;;;;;;;0.10;0.00;;;;;;;25.43;30.70;100443.19;5536291;25;93825;-47
2024/04/08 09:01:34;;;;;;;0.20;0.10;;;;;;;25.44;30.57;100439.44;5537682;25;94698;-47
2024/04/08 09:04:03;;;;;;;0.00;0.00;;;;;;;25.45;30.56;100451.94;5536720;25;95896;-47
2024/04/08 09:06:39;;;;;;;0.30;0.10;;;;;;;25.45;30.35;100450.03;5537798;25;95951;-47
2024/04/08 09:09:06;;;;;;;0.20;0.10;;;;;;;25.49;30.54;100442.31;5537661;25;93817;-47
2024/04/08 09:11:37;;;;;;;0.30;0.20;;;;;;;25.50;30.45;100440.41;5537112;25;93966;-47
2024/04/08 09:14:09;;;;;;;0.10;0.10;;;;;;;25.51;30.38;100437.47;5536017;25;96055;-47
2024/04/08 09:16:39;;;;;;;0.10;0.00;;;;;;;25.51;30.34;100429.34;5536616;25;95894;-47
2024/04/08 09:19:07;;;;;;;0.30;0.20;;;;;;;25.53;30.55;100432.63;5537283;25;93784;-47
2024/04/08 09:21:37;;;;;;;0.10;0.10;;;;;;;25.56;30.45;100434.06;5537159;25;93915;-46
2024/04/08 09:24:08;;;;;;;0.08;0.00;;;;;;;25.56;30.46;100429.50;5536477;25;95894;-46
2024/04/08 09:26:39;;;;;;;0.25;0.10;;;;;;;25.58;30.33;100421.94;5537126;25;96647;-46
2024/04/08 09:29:09;;;;;;;0.28;0.10;;;;;;;25.60;30.31;100421.72;5537541;25;93873;-47
2024/04/08 09:31:39;;;;;;;0.30;0.20;;;;;;;25.61;30.42;100417.94;5536813;25;93917;-46
2024/04/08 09:34:06;;;;;;;0.10;0.00;;;;;;;25.62;30.49;100415.00;5537025;25;95621;-46
2024/04/08 09:36:37;;;;;;;0.10;0.10;;;;;;;25.62;30.21;100415.00;5535972;25;95866;-46
2024/04/08 09:39:04;;;;;;;0.52;0.20;;;;;;;25.63;30.65;100408.50;5534526;25;94642;-46
2024/04/08 09:41:34;;;;;;;0.30;0.10;;;;;;;25.65;30.24;100398.25;5517793;25;93898;-46
2024/04/08 09:45:00;;;;;;;0.32;0.10;;;;;;;25.67;30.18;100404.28;5498847;25;95924;-47
2024/04/08 09:47:30;;;;;;;0.05;0.00;;;;;;;25.70;30.43;100392.16;5498560;25;95934;-46
2024/04/08 09:50:00;;;;;;;0.30;0.10;;;;;;;25.70;30.37;100389.44;5498793;25;94609;-46
2024/04/08 09:52:31;;;;;;;0.27;0.10;;;;;;;25.71;30.16;100374.00;5498925;25;94232;-47
2024/04/08 09:55:01;;;;;;;0.10;0.10;;;;;;;25.73;30.39;100372.69;5498317;25;95730;-46
2024/04/08 10:05:17;;;;;;;0.10;0.10;;;;;;;25.75;30.41;100353.47;5501093;25;93865;-46
2024/04/08 10:07:44;;;;;;;0.13;0.10;;;;;;;25.77;30.33;100356.78;5497997;25;95872;-46
2024/04/08 10:10:15;;;;;;;0.75;0.10;;;;;;;25.77;30.39;100360.31;5498701;25;95891;-46
2024/04/08 10:13:22;;;;;;;0.10;0.00;;;;;;;25.79;30.28;100351.94;5498747;25;94011;-46
2024/04/08 10:15:51;;;;;;;0.10;0.10;;;;;;;25.80;30.09;100361.72;5498916;25;93909;-46
2024/04/08 10:18:22;;;;;;;0.20;0.10;;;;;;;25.81;30.40;100357.97;5498191;25;95911;-46
2024/04/08 10:20:52;;;;;;;0.30;0.10;;;;;;;25.81;30.10;100355.25;5498029;25;95881;-47
2024/04/08 10:23:23;;;;;;;0.13;0.10;;;;;;;25.82;30.20;100360.44;5498853;25;93751;-47
2024/04/08 10:25:50;;;;;;;0.22;0.10;;;;;;;25.82;30.22;100355.00;5499440;25;93976;-46
2024/04/08 10:32:11;;;;;;;0.20;0.10;;;;;;;25.85;30.06;100348.31;5489558;25;93994;-46
2024/04/08 10:34:41;;;;;;;0.50;0.20;;;;;;;25.85;30.08;100348.31;5497656;25;93802;-46
2024/04/08 10:37:14;;;;;;;0.47;0.13;;;;;;;25.86;30.23;100350.81;5498336;25;93914;-46
2024/04/08 10:39:41;;;;;;;0.10;0.10;;;;;;;25.88;30.24;100347.88;5498288;25;95984;-46
2024/04/08 10:45:48;;;;;;;0.40;0.20;;;;;;;25.87;30.35;100338.06;5498407;25;93936;-47
2024/04/08 10:48:16;;;;;;;0.13;0.10;;;;;;;25.88;30.06;100345.19;5497886;25;93972;-47
2024/04/08 10:50:49;;;;;;;0.57;0.10;;;;;;;25.89;30.10;100338.69;5500910;25;95921;-47
2024/04/08 10:53:19;;;;;;;0.45;0.20;;;;;;;25.90;29.88;100332.19;5501465;25;95885;-46
2024/04/08 10:55:49;;;;;;;0.32;0.20;;;;;;;25.91;29.80;100325.72;5501315;25;93914;-46
2024/04/08 10:58:57;;;;;;;0.35;0.10;;;;;;;25.91;30.14;100327.56;5501042;25;93929;-47
2024/04/08 11:01:27;;;;;;;0.30;0.15;;;;;;;25.91;29.92;100316.72;5499994;25;95777;-47
2024/04/08 11:03:55;;;;;;;0.20;0.10;;;;;;;25.91;30.04;100325.72;5500958;25;96028;-47
2024/04/08 11:06:25;;;;;;;0.38;0.10;;;;;;;25.92;30.13;100313.78;5501408;25;93722;-47
2024/04/08 11:08:55;;;;;;;0.20;0.20;;;;;;;25.92;30.03;100311.09;5501214;25;93928;-47
2024/04/08 11:11:26;;;;;;;0.00;0.00;;;;;;;25.94;29.87;100302.72;5500293;25;95947;-46
2024/04/08 11:13:54;;;;;;;0.45;0.20;;;;;;;25.95;30.15;100299.75;5500852;25;96282;-46
2024/04/08 11:16:24;;;;;;;0.10;0.10;;;;;;;25.96;29.79;100297.84;5501424;25;93821;-47
2024/04/08 11:18:52;;;;;;;0.10;0.10;;;;;;;25.96;29.76;100293.28;5501875;25;93754;-46
2024/04/08 11:21:22;;;;;;;0.25;0.20;;;;;;;25.97;29.65;100292.22;5501111;25;95867;-48
2024/04/08 11:23:49;;;;;;;0.57;0.10;;;;;;;25.97;29.84;100286.78;5501032;25;95954;-47
2024/04/08 11:26:22;;;;;;;0.10;0.10;;;;;;;25.97;29.76;100275.94;5500521;25;93888;-47
2024/04/08 11:28:50;;;;;;;0.20;0.10;;;;;;;25.98;29.87;100280.28;5501570;25;93790;-47
2024/04/08 11:31:20;;;;;;;0.32;0.20;;;;;;;25.98;29.73;100269.44;5500259;25;95988;-47
2024/04/08 11:33:47;;;;;;;0.10;0.10;;;;;;;25.99;29.87;100262.97;5500823;25;95885;-46
2024/04/08 11:36:18;;;;;;;0.38;0.10;;;;;;;25.98;30.02;100258.59;5501223;25;93785;-47
2024/04/08 11:38:46;;;;;;;0.25;0.10;;;;;;;25.98;30.04;100261.31;5501380;25;93953;-47
2024/04/08 11:41:16;;;;;;;0.17;0.10;;;;;;;25.97;29.86;100246.09;5500174;25;96132;-47
2024/04/08 11:44:05;;;;;;;0.20;0.10;;;;;;;25.99;29.78;100245.88;5501077;25;95939;-47
2024/04/08 11:46:35;;;;;;;0.43;0.20;;;;;;;25.98;29.76;100250.44;5501433;25;93773;-46
2024/04/08 11:49:02;;;;;;;0.40;0.17;;;;;;;25.98;29.64;100245.03;5536794;25;93931;-47
2024/04/08 11:51:33;;;;;;;0.30;0.10;;;;;;;25.99;29.74;100235.84;5537489;25;95941;-47
2024/04/08 11:54:00;;;;;;;0.17;0.10;;;;;;;25.98;29.46;100247.75;5537497;25;96026;-47
2024/04/08 11:56:30;;;;;;;0.17;0.10;;;;;;;25.99;29.70;100237.75;5538739;25;93867;-47
2024/04/08 12:02:45;;;;;;;0.38;0.10;;;;;;;25.99;29.47;100226.88;5540483;25;94234;-46
2024/04/08 12:05:12;;;;;;;0.10;0.10;;;;;;;25.98;29.89;100228.75;5537594;25;96380;-47
2024/04/08 12:07:43;;;;;;;0.20;0.10;;;;;;;25.98;29.71;100227.94;5537921;25;93808;-46
2024/04/08 12:10:12;;;;;;;0.30;0.10;;;;;;;25.99;29.79;100224.19;5538366;25;93927;-47
2024/04/08 12:12:42;;;;;;;0.10;0.05;;;;;;;25.99;29.51;100219.56;5537185;25;95845;-46
2024/04/08 12:15:10;;;;;;;0.10;0.00;;;;;;;25.99;29.67;100218.75;5536983;25;95901;-47
2024/04/08 12:17:40;;;;;;;0.10;0.00;;;;;;;26.00;29.86;100209.53;5537454;25;93751;-46
2024/04/08 12:20:10;;;;;;;0.10;0.10;;;;;;;26.00;29.38;100196.78;5538097;25;93931;-46
2024/04/08 12:22:40;;;;;;;0.10;0.10;;;;;;;25.99;29.64;100202.47;5537632;25;95880;-47
2024/04/08 12:25:08;;;;;;;0.20;0.10;;;;;;;26.01;29.58;100201.19;5537227;25;95958;-46
2024/04/08 12:28:31;;;;;;;0.10;0.08;;;;;;;26.03;29.67;100199.03;5537605;25;93901;-46
2024/04/08 12:30:58;;;;;;;0.30;0.10;;;;;;;26.02;29.51;100197.38;5537152;25;93948;-47
2024/04/08 12:33:28;;;;;;;0.03;0.03;;;;;;;26.03;29.40;100195.50;5538069;25;96167;-47
2024/04/08 12:35:59;;;;;;;0.10;0.10;;;;;;;26.03;29.60;100193.59;5537864;25;95957;-47
2024/04/08 12:38:29;;;;;;;0.20;0.10;;;;;;;26.03;29.61;100190.88;5538026;25;94690;-46
2024/04/08 12:40:56;;;;;;;0.10;0.10;;;;;;;26.04;29.49;100192.56;5537222;25;93886;-47
2024/04/08 12:43:28;;;;;;;0.00;0.00;;;;;;;26.04;29.59;100189.84;5536490;25;96156;-47
2024/04/08 12:46:15;;;;;;;0.10;0.00;;;;;;;26.04;29.54;100179.00;5536775;25;96000;-47
2024/04/08 12:48:43;;;;;;;0.05;0.05;;;;;;;26.04;29.71;100181.69;5537536;25;93774;-46
2024/04/08 12:51:16;;;;;;;0.35;0.13;;;;;;;26.05;29.63;100183.34;5537144;25;93899;-46
2024/04/08 12:53:44;;;;;;;0.20;0.20;;;;;;;26.06;29.37;100176.03;5536491;25;96222;-46
2024/04/08 12:56:14;;;;;;;0.30;0.10;;;;;;;26.06;29.59;100171.41;5537327;25;96033;-47
2024/04/08 12:59:21;;;;;;;0.30;0.20;;;;;;;26.10;29.17;100166.34;5537145;25;93896;-47